This is the latest recevied weather packets stored in our database for station/object OK1HOL-13. If no packets are shown the sender has not sent any weather packets the latest 10 day(s).
| Time | Temp. | Humidity | Pressure | Rain* | Wind** | Luminosity | Snow |
|---|---|---|---|---|---|---|---|
| 1777801554 | 25.56° C | 20% | 1015.9 hPa | - | - | 431 W/m² | - |
| 1777800953 | 26.11° C | 20% | 1015.9 hPa | - | - | 431 W/m² | - |
| 1777800354 | 25° C | 22% | 1016.2 hPa | - | - | 431 W/m² | - |
| 1777799754 | 25° C | 24% | 1016.2 hPa | - | - | 431 W/m² | - |
| 1777799154 | 25° C | 25% | 1016.3 hPa | - | - | 431 W/m² | - |
| 1777798553 | 25.56° C | 24% | 1016.4 hPa | - | - | 431 W/m² | - |
| 1777797953 | 24.44° C | 25% | 1016.5 hPa | - | - | 431 W/m² | - |
| 1777796753 | 24.44° C | 27% | 1016.7 hPa | - | - | 407 W/m² | - |
| 1777796154 | 23.33° C | 29% | 1016.8 hPa | - | - | 363 W/m² | - |
| 1777795553 | 22.78° C | 29% | 1016.8 hPa | - | - | 382 W/m² | - |
| 1777794954 | 23.33° C | 28% | 1016.9 hPa | - | - | 365 W/m² | - |
| 1777794354 | 22.22° C | 29% | 1016.9 hPa | - | - | 354 W/m² | - |
| 1777793754 | 21.67° C | 30% | 1017.1 hPa | - | - | 313 W/m² | - |
| 1777793154 | 21.11° C | 31% | 1017.1 hPa | - | - | 308 W/m² | - |
| 1777791953 | 20° C | 33% | 1017.2 hPa | - | - | 277 W/m² | - |
| 1777791354 | 18.89° C | 34% | 1017.3 hPa | - | - | 229 W/m² | - |
| 1777790753 | 18.33° C | 37% | 1017.4 hPa | - | - | 177 W/m² | - |
| 1777790154 | 17.22° C | 38% | 1017.5 hPa | - | - | 160 W/m² | - |
| 1777789554 | 17.22° C | 39% | 1017.5 hPa | - | - | 162 W/m² | - |
| 1777788953 | 16.11° C | 42% | 1017.5 hPa | - | - | 135 W/m² | - |
| 1777788354 | 14.44° C | 46% | 1017.5 hPa | - | - | 122 W/m² | - |
| 1777787754 | 13.89° C | 47% | 1017.5 hPa | - | - | 31 W/m² | - |
| 1777787153 | 12.78° C | 49% | 1017.5 hPa | - | - | 28 W/m² | - |
| 1777786554 | 12.22° C | 51% | 1017.5 hPa | - | - | 26 W/m² | - |
| 1777785953 | 12.22° C | 54% | 1017.5 hPa | - | - | 23 W/m² | - |
* Rain since midnight (hover to see other rain measurements)
** Current wind speed in m/s (hover to see current wind gust speed)